sensor_id;sensor_type;location;lat;lon;timestamp;P1;durP1;ratioP1;P2;durP2;ratioP2
22284;SDS011;11311;52.192;20.900;2023-12-20T00:00:11;35.08;;;26.20;;
22284;SDS011;11311;52.192;20.900;2023-12-20T00:02:41;30.60;;;23.00;;
22284;SDS011;11311;52.192;20.900;2023-12-20T00:05:14;35.95;;;24.08;;
22284;SDS011;11311;52.192;20.900;2023-12-20T00:07:42;26.98;;;23.67;;
22284;SDS011;11311;52.192;20.900;2023-12-20T00:10:12;29.02;;;23.40;;
22284;SDS011;11311;52.192;20.900;2023-12-20T00:12:43;30.75;;;23.70;;
22284;SDS011;11311;52.192;20.900;2023-12-20T00:15:12;35.88;;;25.23;;
22284;SDS011;11311;52.192;20.900;2023-12-20T00:17:41;35.78;;;26.13;;
22284;SDS011;11311;52.192;20.900;2023-12-20T00:20:10;26.27;;;21.60;;
22284;SDS011;11311;52.192;20.900;2023-12-20T00:22:39;29.70;;;23.75;;
22284;SDS011;11311;52.192;20.900;2023-12-20T00:25:09;28.60;;;21.92;;
22284;SDS011;11311;52.192;20.900;2023-12-20T00:27:38;26.23;;;21.48;;
22284;SDS011;11311;52.192;20.900;2023-12-20T00:30:09;28.30;;;23.50;;
22284;SDS011;11311;52.192;20.900;2023-12-20T00:32:39;30.83;;;23.73;;
22284;SDS011;11311;52.192;20.900;2023-12-20T00:35:13;31.95;;;25.02;;
22284;SDS011;11311;52.192;20.900;2023-12-20T00:37:42;29.15;;;23.05;;
22284;SDS011;11311;52.192;20.900;2023-12-20T00:40:12;30.77;;;20.50;;
22284;SDS011;11311;52.192;20.900;2023-12-20T00:42:41;24.95;;;21.38;;
22284;SDS011;11311;52.192;20.900;2023-12-20T00:45:13;26.65;;;21.92;;
22284;SDS011;11311;52.192;20.900;2023-12-20T00:47:42;26.48;;;22.25;;
22284;SDS011;11311;52.192;20.900;2023-12-20T00:50:12;25.15;;;22.35;;
22284;SDS011;11311;52.192;20.900;2023-12-20T00:52:41;23.33;;;19.58;;
22284;SDS011;11311;52.192;20.900;2023-12-20T00:55:10;23.40;;;20.40;;
22284;SDS011;11311;52.192;20.900;2023-12-20T00:57:39;28.80;;;24.00;;
22284;SDS011;11311;52.192;20.900;2023-12-20T01:00:09;28.50;;;21.05;;
22284;SDS011;11311;52.192;20.900;2023-12-20T01:02:42;26.95;;;21.42;;
22284;SDS011;11311;52.192;20.900;2023-12-20T01:05:11;24.98;;;21.77;;
22284;SDS011;11311;52.192;20.900;2023-12-20T01:07:40;28.00;;;21.77;;
22284;SDS011;11311;52.192;20.900;2023-12-20T01:10:09;29.13;;;23.23;;
22284;SDS011;11311;52.192;20.900;2023-12-20T01:12:38;26.17;;;19.98;;
22284;SDS011;11311;52.192;20.900;2023-12-20T01:15:08;26.00;;;22.15;;
22284;SDS011;11311;52.192;20.900;2023-12-20T01:17:37;24.77;;;22.02;;
22284;SDS011;11311;52.192;20.900;2023-12-20T01:20:09;26.55;;;22.17;;
22284;SDS011;11311;52.192;20.900;2023-12-20T01:22:38;22.92;;;19.73;;
22284;SDS011;11311;52.192;20.900;2023-12-20T01:25:07;22.35;;;19.33;;
22284;SDS011;11311;52.192;20.900;2023-12-20T01:27:37;23.38;;;20.80;;
22284;SDS011;11311;52.192;20.900;2023-12-20T01:30:06;18.60;;;16.45;;
22284;SDS011;11311;52.192;20.900;2023-12-20T01:35:05;25.92;;;20.85;;
22284;SDS011;11311;52.192;20.900;2023-12-20T01:37:36;22.83;;;19.02;;
22284;SDS011;11311;52.192;20.900;2023-12-20T01:40:05;27.50;;;20.88;;
22284;SDS011;11311;52.192;20.900;2023-12-20T01:45:05;23.15;;;20.20;;
22284;SDS011;11311;52.192;20.900;2023-12-20T01:47:34;29.50;;;20.30;;
22284;SDS011;11311;52.192;20.900;2023-12-20T01:50:04;17.85;;;15.38;;
22284;SDS011;11311;52.192;20.900;2023-12-20T01:52:36;21.00;;;17.48;;
22284;SDS011;11311;52.192;20.900;2023-12-20T01:55:06;22.20;;;19.80;;
22284;SDS011;11311;52.192;20.900;2023-12-20T01:57:41;25.92;;;20.55;;
22284;SDS011;11311;52.192;20.900;2023-12-20T02:02:40;26.38;;;22.17;;
22284;SDS011;11311;52.192;20.900;2023-12-20T02:05:09;25.35;;;21.27;;
22284;SDS011;11311;52.192;20.900;2023-12-20T02:07:40;29.23;;;22.33;;
22284;SDS011;11311;52.192;20.900;2023-12-20T02:10:10;28.73;;;23.77;;
22284;SDS011;11311;52.192;20.900;2023-12-20T02:12:40;31.92;;;25.77;;
22284;SDS011;11311;52.192;20.900;2023-12-20T02:15:12;32.63;;;27.05;;
22284;SDS011;11311;52.192;20.900;2023-12-20T02:17:42;29.08;;;24.08;;
22284;SDS011;11311;52.192;20.900;2023-12-20T02:20:12;31.63;;;26.35;;
22284;SDS011;11311;52.192;20.900;2023-12-20T02:22:42;26.10;;;21.90;;
22284;SDS011;11311;52.192;20.900;2023-12-20T02:25:11;25.63;;;20.60;;
22284;SDS011;11311;52.192;20.900;2023-12-20T02:27:40;24.75;;;20.33;;
22284;SDS011;11311;52.192;20.900;2023-12-20T02:30:10;20.45;;;17.85;;
22284;SDS011;11311;52.192;20.900;2023-12-20T02:32:39;21.98;;;17.80;;
22284;SDS011;11311;52.192;20.900;2023-12-20T02:35:08;18.85;;;16.13;;
22284;SDS011;11311;52.192;20.900;2023-12-20T02:37:37;21.60;;;16.17;;
22284;SDS011;11311;52.192;20.900;2023-12-20T02:40:08;15.02;;;12.95;;
22284;SDS011;11311;52.192;20.900;2023-12-20T02:42:37;14.43;;;12.30;;
22284;SDS011;11311;52.192;20.900;2023-12-20T02:45:07;13.35;;;12.02;;
22284;SDS011;11311;52.192;20.900;2023-12-20T02:47:36;14.77;;;11.90;;
22284;SDS011;11311;52.192;20.900;2023-12-20T02:50:06;12.88;;;11.48;;
22284;SDS011;11311;52.192;20.900;2023-12-20T02:52:35;12.05;;;10.85;;
22284;SDS011;11311;52.192;20.900;2023-12-20T02:55:04;13.52;;;10.82;;
22284;SDS011;11311;52.192;20.900;2023-12-20T02:57:35;12.82;;;11.40;;
22284;SDS011;11311;52.192;20.900;2023-12-20T03:00:09;12.65;;;10.95;;
22284;SDS011;11311;52.192;20.900;2023-12-20T03:02:39;12.88;;;11.50;;
22284;SDS011;11311;52.192;20.900;2023-12-20T03:05:08;11.15;;;10.02;;
22284;SDS011;11311;52.192;20.900;2023-12-20T03:07:37;11.45;;;10.35;;
22284;SDS011;11311;52.192;20.900;2023-12-20T03:10:06;10.67;;;9.40;;
22284;SDS011;11311;52.192;20.900;2023-12-20T03:12:48;10.57;;;8.13;;
22284;SDS011;11311;52.192;20.900;2023-12-20T03:15:17;9.10;;;8.20;;
22284;SDS011;11311;52.192;20.900;2023-12-20T03:17:46;9.07;;;7.65;;
22284;SDS011;11311;52.192;20.900;2023-12-20T03:20:15;7.90;;;7.10;;
22284;SDS011;11311;52.192;20.900;2023-12-20T03:22:44;8.68;;;7.85;;
22284;SDS011;11311;52.192;20.900;2023-12-20T03:25:13;9.32;;;7.93;;
22284;SDS011;11311;52.192;20.900;2023-12-20T03:27:42;10.45;;;8.80;;
22284;SDS011;11311;52.192;20.900;2023-12-20T03:30:13;8.15;;;7.35;;
22284;SDS011;11311;52.192;20.900;2023-12-20T03:32:43;10.18;;;9.18;;
22284;SDS011;11311;52.192;20.900;2023-12-20T03:35:12;10.03;;;9.03;;
22284;SDS011;11311;52.192;20.900;2023-12-20T03:37:41;9.93;;;8.35;;
22284;SDS011;11311;52.192;20.900;2023-12-20T03:40:11;11.40;;;10.23;;
22284;SDS011;11311;52.192;20.900;2023-12-20T03:42:41;9.82;;;8.30;;
22284;SDS011;11311;52.192;20.900;2023-12-20T03:45:10;12.10;;;9.98;;
22284;SDS011;11311;52.192;20.900;2023-12-20T03:47:41;12.70;;;9.82;;
22284;SDS011;11311;52.192;20.900;2023-12-20T03:50:10;11.65;;;10.20;;
22284;SDS011;11311;52.192;20.900;2023-12-20T03:52:39;14.73;;;11.15;;
22284;SDS011;11311;52.192;20.900;2023-12-20T03:55:08;12.70;;;11.40;;
22284;SDS011;11311;52.192;20.900;2023-12-20T03:57:37;17.30;;;12.20;;
22284;SDS011;11311;52.192;20.900;2023-12-20T04:00:07;14.35;;;12.02;;
22284;SDS011;11311;52.192;20.900;2023-12-20T04:02:42;15.00;;;12.27;;
22284;SDS011;11311;52.192;20.900;2023-12-20T04:05:11;16.23;;;13.15;;
22284;SDS011;11311;52.192;20.900;2023-12-20T04:07:42;17.20;;;13.93;;
22284;SDS011;11311;52.192;20.900;2023-12-20T04:10:12;16.90;;;14.05;;
22284;SDS011;11311;52.192;20.900;2023-12-20T04:12:41;17.60;;;13.57;;
22284;SDS011;11311;52.192;20.900;2023-12-20T04:15:10;19.33;;;15.73;;
22284;SDS011;11311;52.192;20.900;2023-12-20T04:17:39;18.13;;;15.05;;
22284;SDS011;11311;52.192;20.900;2023-12-20T04:20:10;16.17;;;14.48;;
22284;SDS011;11311;52.192;20.900;2023-12-20T04:22:39;18.75;;;14.90;;
22284;SDS011;11311;52.192;20.900;2023-12-20T04:25:09;18.95;;;15.02;;
22284;SDS011;11311;52.192;20.900;2023-12-20T04:27:38;16.00;;;13.75;;
22284;SDS011;11311;52.192;20.900;2023-12-20T04:30:08;27.50;;;16.10;;
22284;SDS011;11311;52.192;20.900;2023-12-20T04:32:37;17.98;;;15.75;;
22284;SDS011;11311;52.192;20.900;2023-12-20T04:35:08;17.40;;;15.35;;
22284;SDS011;11311;52.192;20.900;2023-12-20T04:40:06;18.13;;;16.10;;
22284;SDS011;11311;52.192;20.900;2023-12-20T04:42:36;25.85;;;17.52;;
22284;SDS011;11311;52.192;20.900;2023-12-20T04:45:06;17.52;;;14.98;;
22284;SDS011;11311;52.192;20.900;2023-12-20T04:47:35;17.17;;;14.48;;
22284;SDS011;11311;52.192;20.900;2023-12-20T04:50:05;22.20;;;14.77;;
22284;SDS011;11311;52.192;20.900;2023-12-20T04:52:37;18.60;;;16.08;;
22284;SDS011;11311;52.192;20.900;2023-12-20T04:55:06;18.75;;;16.75;;
22284;SDS011;11311;52.192;20.900;2023-12-20T04:57:36;18.02;;;15.23;;
22284;SDS011;11311;52.192;20.900;2023-12-20T05:00:05;19.95;;;16.45;;
22284;SDS011;11311;52.192;20.900;2023-12-20T05:02:36;22.02;;;17.05;;
22284;SDS011;11311;52.192;20.900;2023-12-20T05:05:08;22.40;;;18.17;;
22284;SDS011;11311;52.192;20.900;2023-12-20T05:07:37;24.52;;;19.25;;
22284;SDS011;11311;52.192;20.900;2023-12-20T05:10:07;23.98;;;18.17;;
22284;SDS011;11311;52.192;20.900;2023-12-20T05:15:06;18.67;;;15.50;;
22284;SDS011;11311;52.192;20.900;2023-12-20T05:17:35;20.48;;;16.77;;
22284;SDS011;11311;52.192;20.900;2023-12-20T05:20:05;21.92;;;16.75;;
22284;SDS011;11311;52.192;20.900;2023-12-20T05:22:37;18.75;;;16.10;;
22284;SDS011;11311;52.192;20.900;2023-12-20T05:25:07;23.67;;;18.88;;
22284;SDS011;11311;52.192;20.900;2023-12-20T05:27:36;29.95;;;18.73;;
22284;SDS011;11311;52.192;20.900;2023-12-20T05:30:06;20.42;;;17.98;;
22284;SDS011;11311;52.192;20.900;2023-12-20T05:35:05;20.58;;;17.08;;
22284;SDS011;11311;52.192;20.900;2023-12-20T05:37:35;21.00;;;17.55;;
22284;SDS011;11311;52.192;20.900;2023-12-20T05:40:05;21.50;;;16.35;;
22284;SDS011;11311;52.192;20.900;2023-12-20T05:42:37;22.30;;;17.10;;
22284;SDS011;11311;52.192;20.900;2023-12-20T05:45:06;19.77;;;16.60;;
22284;SDS011;11311;52.192;20.900;2023-12-20T05:47:38;25.40;;;18.30;;
22284;SDS011;11311;52.192;20.900;2023-12-20T05:50:07;24.15;;;17.15;;
22284;SDS011;11311;52.192;20.900;2023-12-20T05:55:08;25.90;;;18.45;;
22284;SDS011;11311;52.192;20.900;2023-12-20T05:57:37;23.13;;;18.23;;
22284;SDS011;11311;52.192;20.900;2023-12-20T06:00:07;22.00;;;18.07;;
22284;SDS011;11311;52.192;20.900;2023-12-20T06:02:41;23.83;;;17.48;;
22284;SDS011;11311;52.192;20.900;2023-12-20T06:05:10;19.90;;;15.35;;
22284;SDS011;11311;52.192;20.900;2023-12-20T06:07:40;19.52;;;16.52;;
22284;SDS011;11311;52.192;20.900;2023-12-20T06:10:10;21.65;;;16.52;;
22284;SDS011;11311;52.192;20.900;2023-12-20T06:12:39;22.23;;;16.05;;
22284;SDS011;11311;52.192;20.900;2023-12-20T06:15:09;21.80;;;18.05;;
22284;SDS011;11311;52.192;20.900;2023-12-20T06:17:38;25.33;;;20.08;;
22284;SDS011;11311;52.192;20.900;2023-12-20T06:20:08;32.67;;;22.75;;
22284;SDS011;11311;52.192;20.900;2023-12-20T06:25:08;37.22;;;27.20;;
22284;SDS011;11311;52.192;20.900;2023-12-20T06:27:37;40.33;;;27.15;;
22284;SDS011;11311;52.192;20.900;2023-12-20T06:30:07;42.58;;;30.88;;
22284;SDS011;11311;52.192;20.900;2023-12-20T06:32:37;38.22;;;29.52;;
22284;SDS011;11311;52.192;20.900;2023-12-20T06:35:07;36.33;;;28.83;;
22284;SDS011;11311;52.192;20.900;2023-12-20T06:37:36;41.28;;;30.70;;
22284;SDS011;11311;52.192;20.900;2023-12-20T06:40:11;45.63;;;32.25;;
22284;SDS011;11311;52.192;20.900;2023-12-20T06:42:45;38.72;;;29.15;;
22284;SDS011;11311;52.192;20.900;2023-12-20T06:45:31;45.03;;;31.20;;
22284;SDS011;11311;52.192;20.900;2023-12-20T06:48:00;40.70;;;30.58;;
22284;SDS011;11311;52.192;20.900;2023-12-20T06:50:30;40.22;;;28.27;;
22284;SDS011;11311;52.192;20.900;2023-12-20T06:52:59;44.13;;;31.40;;
22284;SDS011;11311;52.192;20.900;2023-12-20T06:55:36;38.63;;;29.13;;
22284;SDS011;11311;52.192;20.900;2023-12-20T06:58:05;39.22;;;29.65;;
22284;SDS011;11311;52.192;20.900;2023-12-20T07:00:35;34.40;;;25.05;;
22284;SDS011;11311;52.192;20.900;2023-12-20T07:03:05;36.08;;;25.75;;
22284;SDS011;11311;52.192;20.900;2023-12-20T07:05:34;37.63;;;25.65;;
22284;SDS011;11311;52.192;20.900;2023-12-20T07:08:04;25.38;;;21.85;;
22284;SDS011;11311;52.192;20.900;2023-12-20T07:10:34;30.63;;;21.45;;
22284;SDS011;11311;52.192;20.900;2023-12-20T07:13:04;24.73;;;19.63;;
22284;SDS011;11311;52.192;20.900;2023-12-20T07:15:34;25.75;;;19.55;;
22284;SDS011;11311;52.192;20.900;2023-12-20T07:18:04;29.13;;;19.92;;
22284;SDS011;11311;52.192;20.900;2023-12-20T07:20:34;26.60;;;20.60;;
22284;SDS011;11311;52.192;20.900;2023-12-20T07:23:03;24.23;;;19.77;;
22284;SDS011;11311;52.192;20.900;2023-12-20T07:25:32;22.67;;;18.40;;
22284;SDS011;11311;52.192;20.900;2023-12-20T07:28:02;20.95;;;16.95;;
22284;SDS011;11311;52.192;20.900;2023-12-20T07:30:32;24.65;;;18.08;;
22284;SDS011;11311;52.192;20.900;2023-12-20T07:33:02;21.70;;;17.33;;
22284;SDS011;11311;52.192;20.900;2023-12-20T07:35:36;19.92;;;16.92;;
22284;SDS011;11311;52.192;20.900;2023-12-20T07:38:06;23.98;;;19.00;;
22284;SDS011;11311;52.192;20.900;2023-12-20T07:40:35;25.83;;;17.83;;
22284;SDS011;11311;52.192;20.900;2023-12-20T07:43:06;27.58;;;18.35;;
22284;SDS011;11311;52.192;20.900;2023-12-20T07:45:36;23.20;;;16.83;;
22284;SDS011;11311;52.192;20.900;2023-12-20T07:48:06;20.85;;;16.17;;
22284;SDS011;11311;52.192;20.900;2023-12-20T07:50:36;22.33;;;17.00;;
22284;SDS011;11311;52.192;20.900;2023-12-20T07:53:05;24.33;;;16.13;;
22284;SDS011;11311;52.192;20.900;2023-12-20T07:55:35;20.58;;;16.63;;
22284;SDS011;11311;52.192;20.900;2023-12-20T07:58:06;21.27;;;16.70;;
22284;SDS011;11311;52.192;20.900;2023-12-20T08:00:35;20.40;;;15.85;;
22284;SDS011;11311;52.192;20.900;2023-12-20T08:03:04;16.55;;;14.73;;
22284;SDS011;11311;52.192;20.900;2023-12-20T08:05:34;17.83;;;15.13;;
22284;SDS011;11311;52.192;20.900;2023-12-20T08:08:07;21.02;;;14.60;;
22284;SDS011;11311;52.192;20.900;2023-12-20T08:10:35;18.25;;;15.18;;
22284;SDS011;11311;52.192;20.900;2023-12-20T08:13:06;16.95;;;13.90;;
22284;SDS011;11311;52.192;20.900;2023-12-20T08:15:36;18.30;;;15.50;;
22284;SDS011;11311;52.192;20.900;2023-12-20T08:18:05;18.83;;;16.20;;
22284;SDS011;11311;52.192;20.900;2023-12-20T08:20:34;18.25;;;15.38;;
22284;SDS011;11311;52.192;20.900;2023-12-20T08:23:07;21.33;;;17.13;;
22284;SDS011;11311;52.192;20.900;2023-12-20T08:25:36;20.77;;;15.98;;
22284;SDS011;11311;52.192;20.900;2023-12-20T08:28:07;21.17;;;16.48;;
22284;SDS011;11311;52.192;20.900;2023-12-20T08:30:36;19.85;;;16.30;;
22284;SDS011;11311;52.192;20.900;2023-12-20T08:33:06;22.67;;;18.07;;
22284;SDS011;11311;52.192;20.900;2023-12-20T08:35:39;25.20;;;17.67;;
22284;SDS011;11311;52.192;20.900;2023-12-20T08:38:08;23.15;;;17.98;;
22284;SDS011;11311;52.192;20.900;2023-12-20T08:40:37;32.03;;;21.42;;
22284;SDS011;11311;52.192;20.900;2023-12-20T08:43:08;28.52;;;21.73;;
22284;SDS011;11311;52.192;20.900;2023-12-20T08:45:37;27.15;;;21.08;;
22284;SDS011;11311;52.192;20.900;2023-12-20T08:48:07;27.75;;;20.55;;
22284;SDS011;11311;52.192;20.900;2023-12-20T08:50:36;26.17;;;20.57;;
22284;SDS011;11311;52.192;20.900;2023-12-20T08:53:06;24.48;;;17.80;;
22284;SDS011;11311;52.192;20.900;2023-12-20T08:55:35;21.92;;;15.43;;
22284;SDS011;11311;52.192;20.900;2023-12-20T08:58:04;22.92;;;16.45;;
22284;SDS011;11311;52.192;20.900;2023-12-20T09:00:37;31.48;;;17.50;;
22284;SDS011;11311;52.192;20.900;2023-12-20T09:03:06;17.23;;;13.48;;
22284;SDS011;11311;52.192;20.900;2023-12-20T09:05:35;19.75;;;15.05;;
22284;SDS011;11311;52.192;20.900;2023-12-20T09:08:05;18.17;;;13.63;;
22284;SDS011;11311;52.192;20.900;2023-12-20T09:10:34;14.60;;;11.80;;
22284;SDS011;11311;52.192;20.900;2023-12-20T09:13:04;14.03;;;12.53;;
22284;SDS011;11311;52.192;20.900;2023-12-20T09:15:33;16.60;;;12.48;;
22284;SDS011;11311;52.192;20.900;2023-12-20T09:18:05;15.57;;;12.02;;
22284;SDS011;11311;52.192;20.900;2023-12-20T09:20:34;15.18;;;11.60;;
22284;SDS011;11311;52.192;20.900;2023-12-20T09:23:08;14.60;;;13.00;;
22284;SDS011;11311;52.192;20.900;2023-12-20T09:25:37;14.00;;;11.93;;
22284;SDS011;11311;52.192;20.900;2023-12-20T09:28:07;14.05;;;12.15;;
22284;SDS011;11311;52.192;20.900;2023-12-20T09:30:36;14.27;;;12.38;;
22284;SDS011;11311;52.192;20.900;2023-12-20T09:33:09;16.65;;;14.27;;
22284;SDS011;11311;52.192;20.900;2023-12-20T09:35:38;20.67;;;16.38;;
22284;SDS011;11311;52.192;20.900;2023-12-20T09:38:08;19.43;;;15.87;;
22284;SDS011;11311;52.192;20.900;2023-12-20T09:40:36;20.88;;;17.27;;
22284;SDS011;11311;52.192;20.900;2023-12-20T09:43:10;20.85;;;17.10;;
22284;SDS011;11311;52.192;20.900;2023-12-20T09:45:43;17.27;;;13.02;;
22284;SDS011;11311;52.192;20.900;2023-12-20T09:48:17;17.38;;;13.82;;
22284;SDS011;11311;52.192;20.900;2023-12-20T09:50:47;20.55;;;15.40;;
22284;SDS011;11311;52.192;20.900;2023-12-20T09:53:20;22.17;;;16.27;;
22284;SDS011;11311;52.192;20.900;2023-12-20T09:55:51;18.98;;;14.98;;
22284;SDS011;11311;52.192;20.900;2023-12-20T09:58:20;21.33;;;16.88;;
22284;SDS011;11311;52.192;20.900;2023-12-20T10:00:51;21.08;;;16.65;;
22284;SDS011;11311;52.192;20.900;2023-12-20T10:03:23;26.20;;;17.17;;
22284;SDS011;11311;52.192;20.900;2023-12-20T10:05:54;25.02;;;17.95;;
22284;SDS011;11311;52.192;20.900;2023-12-20T10:08:26;23.85;;;17.30;;
22284;SDS011;11311;52.192;20.900;2023-12-20T10:10:57;18.02;;;15.10;;
22284;SDS011;11311;52.192;20.900;2023-12-20T10:13:29;17.52;;;14.43;;
22284;SDS011;11311;52.192;20.900;2023-12-20T10:15:59;35.63;;;15.70;;
22284;SDS011;11311;52.192;20.900;2023-12-20T10:18:30;20.60;;;15.57;;
22284;SDS011;11311;52.192;20.900;2023-12-20T10:21:05;17.70;;;12.88;;
22284;SDS011;11311;52.192;20.900;2023-12-20T10:23:37;16.15;;;13.90;;
22284;SDS011;11311;52.192;20.900;2023-12-20T10:26:08;19.83;;;16.05;;
22284;SDS011;11311;52.192;20.900;2023-12-20T10:28:37;18.60;;;14.18;;
22284;SDS011;11311;52.192;20.900;2023-12-20T10:31:06;18.77;;;14.10;;
22284;SDS011;11311;52.192;20.900;2023-12-20T10:33:37;15.95;;;13.38;;
22284;SDS011;11311;52.192;20.900;2023-12-20T10:36:09;17.42;;;15.32;;
22284;SDS011;11311;52.192;20.900;2023-12-20T10:38:40;18.40;;;14.93;;
22284;SDS011;11311;52.192;20.900;2023-12-20T10:41:12;21.67;;;16.92;;
22284;SDS011;11311;52.192;20.900;2023-12-20T10:43:41;19.02;;;15.02;;
22284;SDS011;11311;52.192;20.900;2023-12-20T10:46:14;20.75;;;16.85;;
22284;SDS011;11311;52.192;20.900;2023-12-20T10:48:45;17.80;;;14.02;;
22284;SDS011;11311;52.192;20.900;2023-12-20T10:51:17;19.15;;;16.25;;
22284;SDS011;11311;52.192;20.900;2023-12-20T10:53:47;20.25;;;17.10;;
22284;SDS011;11311;52.192;20.900;2023-12-20T10:56:18;21.17;;;17.70;;
22284;SDS011;11311;52.192;20.900;2023-12-20T10:58:48;21.27;;;18.52;;
22284;SDS011;11311;52.192;20.900;2023-12-20T11:01:17;21.95;;;18.10;;
22284;SDS011;11311;52.192;20.900;2023-12-20T11:03:49;20.15;;;17.02;;
22284;SDS011;11311;52.192;20.900;2023-12-20T11:06:26;20.02;;;15.07;;
22284;SDS011;11311;52.192;20.900;2023-12-20T11:09:01;16.45;;;13.57;;
22284;SDS011;11311;52.192;20.900;2023-12-20T11:11:41;13.98;;;11.85;;
22284;SDS011;11311;52.192;20.900;2023-12-20T11:14:22;18.48;;;14.05;;
22284;SDS011;11311;52.192;20.900;2023-12-20T11:17:05;19.15;;;14.43;;
22284;SDS011;11311;52.192;20.900;2023-12-20T11:19:39;20.95;;;17.38;;
22284;SDS011;11311;52.192;20.900;2023-12-20T11:22:32;26.25;;;18.58;;
22284;SDS011;11311;52.192;20.900;2023-12-20T11:25:08;23.17;;;18.73;;
22284;SDS011;11311;52.192;20.900;2023-12-20T11:27:40;28.08;;;21.95;;
22284;SDS011;11311;52.192;20.900;2023-12-20T11:30:12;22.92;;;17.48;;
22284;SDS011;11311;52.192;20.900;2023-12-20T11:32:45;20.55;;;16.85;;
22284;SDS011;11311;52.192;20.900;2023-12-20T11:35:19;17.42;;;15.48;;
22284;SDS011;11311;52.192;20.900;2023-12-20T11:37:50;31.98;;;16.00;;
22284;SDS011;11311;52.192;20.900;2023-12-20T11:40:20;22.27;;;17.80;;
22284;SDS011;11311;52.192;20.900;2023-12-20T11:45:21;19.17;;;15.55;;
22284;SDS011;11311;52.192;20.900;2023-12-20T11:47:52;20.30;;;17.70;;
22284;SDS011;11311;52.192;20.900;2023-12-20T11:50:24;17.40;;;15.40;;
22284;SDS011;11311;52.192;20.900;2023-12-20T11:52:53;18.10;;;16.20;;
22284;SDS011;11311;52.192;20.900;2023-12-20T11:55:22;20.65;;;17.60;;
22284;SDS011;11311;52.192;20.900;2023-12-20T11:57:52;18.17;;;14.87;;
22284;SDS011;11311;52.192;20.900;2023-12-20T12:00:21;17.83;;;16.02;;
22284;SDS011;11311;52.192;20.900;2023-12-20T12:02:57;18.13;;;16.15;;
22284;SDS011;11311;52.192;20.900;2023-12-20T12:05:30;16.58;;;12.55;;
22284;SDS011;11311;52.192;20.900;2023-12-20T12:08:00;17.27;;;13.85;;
22284;SDS011;11311;52.192;20.900;2023-12-20T12:12:59;15.07;;;13.05;;
22284;SDS011;11311;52.192;20.900;2023-12-20T12:15:29;12.30;;;11.10;;
22284;SDS011;11311;52.192;20.900;2023-12-20T12:17:58;13.45;;;11.95;;
22284;SDS011;11311;52.192;20.900;2023-12-20T12:20:30;13.38;;;11.48;;
22284;SDS011;11311;52.192;20.900;2023-12-20T12:23:02;14.50;;;12.88;;
22284;SDS011;11311;52.192;20.900;2023-12-20T12:25:32;16.60;;;12.68;;
22284;SDS011;11311;52.192;20.900;2023-12-20T12:28:05;15.43;;;13.68;;
22284;SDS011;11311;52.192;20.900;2023-12-20T12:30:34;19.23;;;13.88;;
22284;SDS011;11311;52.192;20.900;2023-12-20T12:33:12;14.45;;;12.88;;
22284;SDS011;11311;52.192;20.900;2023-12-20T12:35:43;14.15;;;12.57;;
22284;SDS011;11311;52.192;20.900;2023-12-20T12:38:13;21.65;;;15.70;;
22284;SDS011;11311;52.192;20.900;2023-12-20T12:40:43;17.33;;;15.40;;
22284;SDS011;11311;52.192;20.900;2023-12-20T12:43:13;14.17;;;12.47;;
22284;SDS011;11311;52.192;20.900;2023-12-20T12:45:44;19.90;;;15.02;;
22284;SDS011;11311;52.192;20.900;2023-12-20T12:48:14;20.50;;;14.65;;
22284;SDS011;11311;52.192;20.900;2023-12-20T12:50:46;16.63;;;14.45;;
22284;SDS011;11311;52.192;20.900;2023-12-20T12:53:16;16.05;;;13.73;;
22284;SDS011;11311;52.192;20.900;2023-12-20T12:55:45;14.93;;;13.43;;
22284;SDS011;11311;52.192;20.900;2023-12-20T12:58:14;16.20;;;11.05;;
22284;SDS011;11311;52.192;20.900;2023-12-20T13:00:44;14.30;;;12.00;;
22284;SDS011;11311;52.192;20.900;2023-12-20T13:03:13;16.45;;;12.38;;
22284;SDS011;11311;52.192;20.900;2023-12-20T13:05:42;13.27;;;11.80;;
22284;SDS011;11311;52.192;20.900;2023-12-20T13:08:14;13.60;;;10.85;;
22284;SDS011;11311;52.192;20.900;2023-12-20T13:10:44;16.63;;;10.93;;
22284;SDS011;11311;52.192;20.900;2023-12-20T13:13:13;15.93;;;10.60;;
22284;SDS011;11311;52.192;20.900;2023-12-20T13:15:43;13.18;;;11.55;;
22284;SDS011;11311;52.192;20.900;2023-12-20T13:18:18;12.93;;;11.63;;
22284;SDS011;11311;52.192;20.900;2023-12-20T13:20:47;15.15;;;12.43;;
22284;SDS011;11311;52.192;20.900;2023-12-20T13:23:18;13.25;;;10.73;;
22284;SDS011;11311;52.192;20.900;2023-12-20T13:28:15;13.63;;;11.45;;
22284;SDS011;11311;52.192;20.900;2023-12-20T13:30:45;14.15;;;12.10;;
22284;SDS011;11311;52.192;20.900;2023-12-20T13:33:14;20.00;;;13.27;;
22284;SDS011;11311;52.192;20.900;2023-12-20T13:35:45;14.13;;;12.73;;
22284;SDS011;11311;52.192;20.900;2023-12-20T13:38:15;14.00;;;10.77;;
22284;SDS011;11311;52.192;20.900;2023-12-20T13:40:45;16.38;;;12.32;;
22284;SDS011;11311;52.192;20.900;2023-12-20T13:43:14;14.52;;;12.30;;
22284;SDS011;11311;52.192;20.900;2023-12-20T13:45:48;14.38;;;11.88;;
22284;SDS011;11311;52.192;20.900;2023-12-20T13:48:17;12.60;;;10.25;;
22284;SDS011;11311;52.192;20.900;2023-12-20T13:50:47;15.18;;;13.48;;
22284;SDS011;11311;52.192;20.900;2023-12-20T13:53:20;15.43;;;12.38;;
22284;SDS011;11311;52.192;20.900;2023-12-20T13:55:50;14.73;;;12.77;;
22284;SDS011;11311;52.192;20.900;2023-12-20T13:58:19;13.82;;;10.48;;
22284;SDS011;11311;52.192;20.900;2023-12-20T14:00:49;15.15;;;10.95;;
22284;SDS011;11311;52.192;20.900;2023-12-20T14:03:18;11.98;;;10.07;;
22284;SDS011;11311;52.192;20.900;2023-12-20T14:05:48;18.90;;;13.38;;
22284;SDS011;11311;52.192;20.900;2023-12-20T14:08:18;16.55;;;13.68;;
22284;SDS011;11311;52.192;20.900;2023-12-20T14:10:48;20.80;;;14.55;;
22284;SDS011;11311;52.192;20.900;2023-12-20T14:13:19;18.63;;;14.27;;
22284;SDS011;11311;52.192;20.900;2023-12-20T14:15:49;16.42;;;13.63;;
22284;SDS011;11311;52.192;20.900;2023-12-20T14:18:18;15.98;;;13.57;;
22284;SDS011;11311;52.192;20.900;2023-12-20T14:20:47;16.30;;;13.23;;
22284;SDS011;11311;52.192;20.900;2023-12-20T14:23:18;11.48;;;10.27;;
22284;SDS011;11311;52.192;20.900;2023-12-20T14:25:46;18.90;;;12.02;;
22284;SDS011;11311;52.192;20.900;2023-12-20T14:28:20;12.25;;;11.05;;
22284;SDS011;11311;52.192;20.900;2023-12-20T14:30:49;11.18;;;9.48;;
22284;SDS011;11311;52.192;20.900;2023-12-20T14:33:19;14.53;;;9.93;;
22284;SDS011;11311;52.192;20.900;2023-12-20T14:35:49;12.98;;;8.85;;
22284;SDS011;11311;52.192;20.900;2023-12-20T14:38:18;14.02;;;10.70;;
22284;SDS011;11311;52.192;20.900;2023-12-20T14:40:49;17.42;;;10.52;;
22284;SDS011;11311;52.192;20.900;2023-12-20T14:43:23;12.73;;;9.13;;
22284;SDS011;11311;52.192;20.900;2023-12-20T14:45:56;13.18;;;10.82;;
22284;SDS011;11311;52.192;20.900;2023-12-20T14:48:25;13.50;;;8.23;;
22284;SDS011;11311;52.192;20.900;2023-12-20T14:50:56;10.73;;;7.97;;
22284;SDS011;11311;52.192;20.900;2023-12-20T14:53:27;12.52;;;7.75;;
22284;SDS011;11311;52.192;20.900;2023-12-20T14:55:56;13.63;;;6.70;;